Time;durP1;ratioP1;P1;durP2;ratioP2;P2;SDS_P1;SDS_P2;PMS_P1;PMS_P2;Temp;Humidity;BMP_temperature;BMP_pressure;BME280_temperature;BME280_humidity;BME280_pressure;Samples;Min_cycle;Max_cycle;Signal;HPM_P1;HPM_P2
2022/04/12 00:01:02;;;;;;;180.43;83.32;;;;;;;;;;5014056;28;20783;-62
2022/04/12 00:03:28;;;;;;;171.13;81.90;;;;;;;;;;5014114;28;20584;-62
2022/04/12 00:05:54;;;;;;;183.82;80.03;;;;;;;;;;5013848;28;20200;-64
2022/04/12 00:08:20;;;;;;;178.88;82.45;;;;;;;;;;5013939;28;20188;-62
2022/04/12 00:10:47;;;;;;;182.02;82.13;;;;;;;;;;5013655;28;20182;-62
2022/04/12 00:13:13;;;;;;;184.43;82.50;;;;;;;;;;5013946;28;20614;-62
2022/04/12 00:15:39;;;;;;;177.73;81.80;;;;;;;;;;5013631;28;20252;-62
2022/04/12 00:20:53;;;;;;;185.20;83.18;;;;;;;;;;5012978;28;20191;-62
2022/04/12 00:23:19;;;;;;;185.18;80.60;;;;;;;;;;5013667;28;20335;-62
2022/04/12 00:25:45;;;;;;;177.05;80.15;;;;;;;;;;5013464;28;20211;-62
2022/04/12 00:28:11;;;;;;;181.20;83.15;;;;;;;;;;5013244;28;20184;-62
2022/04/12 00:30:37;;;;;;;179.88;80.25;;;;;;;;;;5012020;28;20177;-62
2022/04/12 00:33:03;;;;;;;182.23;83.65;;;;;;;;;;5013553;28;20177;-62
2022/04/12 00:35:29;;;;;;;177.93;80.50;;;;;;;;;;5013247;28;20669;-62
2022/04/12 00:37:55;;;;;;;178.80;83.75;;;;;;;;;;5013231;28;20212;-62
2022/04/12 00:40:24;;;;;;;177.80;85.55;;;;;;;;;;5013036;28;20177;-62
2022/04/12 00:42:50;;;;;;;176.48;81.15;;;;;;;;;;5013393;28;20165;-62
2022/04/12 00:45:16;;;;;;;175.07;78.63;;;;;;;;;;5013141;28;20184;-62
2022/04/12 00:47:42;;;;;;;180.30;77.85;;;;;;;;;;5013130;28;20467;-62
2022/04/12 00:50:09;;;;;;;180.65;84.88;;;;;;;;;;5012802;28;20170;-62
2022/04/12 00:52:36;;;;;;;167.43;77.90;;;;;;;;;;5013084;28;20188;-62
2022/04/12 00:55:03;;;;;;;166.68;76.97;;;;;;;;;;5013053;28;20191;-62
2022/04/12 00:57:30;;;;;;;162.00;76.93;;;;;;;;;;5013166;28;20200;-62
2022/04/12 00:59:57;;;;;;;179.50;80.40;;;;;;;;;;5012831;28;20644;-62
2022/04/12 01:02:23;;;;;;;182.50;79.13;;;;;;;;;;5012306;28;20804;-62
2022/04/12 01:04:49;;;;;;;180.05;81.32;;;;;;;;;;5012990;28;20264;-62
2022/04/12 01:07:15;;;;;;;174.30;79.27;;;;;;;;;;5012748;28;20288;-62
2022/04/12 01:09:41;;;;;;;175.80;79.47;;;;;;;;;;5012274;28;20404;-62
2022/04/12 01:12:09;;;;;;;170.37;80.90;;;;;;;;;;5012259;28;20268;-62
2022/04/12 01:14:36;;;;;;;165.15;77.85;;;;;;;;;;5012624;28;20412;-62
2022/04/12 01:17:08;;;;;;;175.80;79.88;;;;;;;;;;5012567;28;20216;-62
2022/04/12 01:19:34;;;;;;;170.20;77.30;;;;;;;;;;5012562;28;20184;-62
2022/04/12 01:22:06;;;;;;;173.73;77.68;;;;;;;;;;5012380;28;20184;-62
2022/04/12 01:24:33;;;;;;;167.55;76.72;;;;;;;;;;5012585;28;20180;-62
2022/04/12 01:26:59;;;;;;;167.73;83.38;;;;;;;;;;5013450;28;20223;-62
2022/04/12 01:29:26;;;;;;;158.93;76.57;;;;;;;;;;5012376;28;20307;-62
2022/04/12 01:31:52;;;;;;;164.20;75.45;;;;;;;;;;5012335;28;20189;-62
2022/04/12 01:34:18;;;;;;;160.70;75.07;;;;;;;;;;5012419;28;20272;-62
2022/04/12 01:36:44;;;;;;;155.77;74.10;;;;;;;;;;5012295;28;20269;-62
2022/04/12 01:39:10;;;;;;;160.15;75.10;;;;;;;;;;5012319;28;20415;-62
2022/04/12 01:41:36;;;;;;;157.30;76.70;;;;;;;;;;5012041;28;20604;-62
2022/04/12 01:44:02;;;;;;;162.50;76.43;;;;;;;;;;5012242;28;20799;-62
2022/04/12 01:46:28;;;;;;;161.00;76.17;;;;;;;;;;5012083;28;21219;-62
2022/04/12 01:48:55;;;;;;;159.63;75.38;;;;;;;;;;5012282;28;20440;-62
2022/04/12 01:51:21;;;;;;;163.57;77.00;;;;;;;;;;5011904;28;20585;-62
2022/04/12 01:53:47;;;;;;;156.43;73.47;;;;;;;;;;5012092;28;20484;-62
2022/04/12 01:56:13;;;;;;;161.47;75.87;;;;;;;;;;5012037;28;20283;-62
2022/04/12 01:58:45;;;;;;;160.87;73.80;;;;;;;;;;5011999;28;20412;-60
2022/04/12 02:01:11;;;;;;;162.13;74.60;;;;;;;;;;5011591;28;20411;-62
2022/04/12 02:03:37;;;;;;;156.07;74.60;;;;;;;;;;5011937;28;20281;-62
2022/04/12 02:06:03;;;;;;;160.20;75.57;;;;;;;;;;5011591;28;20798;-62
2022/04/12 02:08:29;;;;;;;151.15;75.93;;;;;;;;;;5011444;28;20405;-62
2022/04/12 02:10:55;;;;;;;149.82;75.63;;;;;;;;;;5010843;28;20170;-62
2022/04/12 02:13:21;;;;;;;159.73;76.67;;;;;;;;;;5011697;28;20177;-62
2022/04/12 02:15:47;;;;;;;157.53;76.23;;;;;;;;;;5011424;28;20483;-62
2022/04/12 02:18:13;;;;;;;158.17;74.87;;;;;;;;;;5011569;28;20423;-62
2022/04/12 02:20:39;;;;;;;156.67;73.90;;;;;;;;;;5011030;28;20416;-62
2022/04/12 02:23:04;;;;;;;152.97;75.63;;;;;;;;;;5011420;28;20774;-62
2022/04/12 02:25:31;;;;;;;155.60;74.27;;;;;;;;;;5011493;28;20986;-62
2022/04/12 02:27:57;;;;;;;150.45;69.43;;;;;;;;;;5011929;28;20466;-62
2022/04/12 02:30:23;;;;;;;160.87;79.03;;;;;;;;;;5011168;28;20203;-62
2022/04/12 02:32:49;;;;;;;161.03;74.80;;;;;;;;;;5011174;28;20947;-62
2022/04/12 02:35:15;;;;;;;155.80;73.50;;;;;;;;;;5011445;28;20435;-62
2022/04/12 02:37:41;;;;;;;157.37;74.27;;;;;;;;;;5011638;28;20410;-62
2022/04/12 02:40:08;;;;;;;154.30;69.87;;;;;;;;;;5011417;28;20411;-62
2022/04/12 02:42:34;;;;;;;158.55;72.20;;;;;;;;;;5011680;28;20416;-62
2022/04/12 02:45:00;;;;;;;163.10;73.60;;;;;;;;;;5012138;28;20237;-62
2022/04/12 02:47:28;;;;;;;163.20;73.80;;;;;;;;;;5011435;28;20466;-62
2022/04/12 02:49:54;;;;;;;160.57;71.82;;;;;;;;;;5011369;28;20447;-62
2022/04/12 02:52:19;;;;;;;162.63;73.53;;;;;;;;;;5011110;28;20208;-61
2022/04/12 02:54:45;;;;;;;161.10;72.70;;;;;;;;;;5011243;28;20410;-61
2022/04/12 02:57:11;;;;;;;163.10;72.50;;;;;;;;;;5011261;28;20514;-61
2022/04/12 02:59:37;;;;;;;158.60;72.63;;;;;;;;;;5010626;28;20407;-61
2022/04/12 03:02:03;;;;;;;157.77;70.73;;;;;;;;;;5010783;28;21191;-61
2022/04/12 03:04:29;;;;;;;160.02;71.25;;;;;;;;;;5011113;28;20413;-62
2022/04/12 03:06:55;;;;;;;157.93;69.63;;;;;;;;;;5011264;28;20582;-62
2022/04/12 03:09:22;;;;;;;160.57;72.30;;;;;;;;;;5011110;28;20910;-61
2022/04/12 03:11:48;;;;;;;157.75;72.40;;;;;;;;;;5010788;28;20779;-61
2022/04/12 03:14:14;;;;;;;156.40;68.83;;;;;;;;;;5011168;28;20173;-61
2022/04/12 03:16:42;;;;;;;158.20;70.40;;;;;;;;;;5011020;28;20451;-62
2022/04/12 03:19:08;;;;;;;154.23;69.25;;;;;;;;;;5011145;28;20775;-61
2022/04/12 03:21:34;;;;;;;157.23;70.10;;;;;;;;;;5010919;28;20184;-61
2022/04/12 03:24:00;;;;;;;154.13;67.68;;;;;;;;;;5011147;28;20176;-61
2022/04/12 03:26:26;;;;;;;152.70;71.03;;;;;;;;;;5010961;28;20710;-61
2022/04/12 03:28:52;;;;;;;155.90;69.80;;;;;;;;;;5010842;28;20400;-61
2022/04/12 03:31:18;;;;;;;154.50;67.82;;;;;;;;;;5010675;28;20602;-61
2022/04/12 03:33:46;;;;;;;154.00;68.10;;;;;;;;;;5013673;28;20277;-61
2022/04/12 03:36:12;;;;;;;154.50;67.22;;;;;;;;;;5014414;28;20811;-61
2022/04/12 03:38:47;;;;;;;149.50;65.30;;;;;;;;;;5014559;28;20177;-61
2022/04/12 03:41:13;;;;;;;152.73;68.72;;;;;;;;;;5014225;28;20435;-61
2022/04/12 03:43:39;;;;;;;157.77;68.40;;;;;;;;;;5014497;28;20651;-61
2022/04/12 03:46:05;;;;;;;155.00;68.17;;;;;;;;;;5014185;28;20485;-61
2022/04/12 03:48:31;;;;;;;157.17;67.40;;;;;;;;;;5014383;28;20400;-61
2022/04/12 03:50:57;;;;;;;152.23;66.57;;;;;;;;;;5014032;28;20392;-61
2022/04/12 03:53:23;;;;;;;155.47;66.43;;;;;;;;;;5014234;28;20848;-61
2022/04/12 03:55:49;;;;;;;157.33;67.80;;;;;;;;;;5014368;28;21074;-61
2022/04/12 03:58:19;;;;;;;154.55;67.47;;;;;;;;;;5014539;28;20413;-61
2022/04/12 04:00:45;;;;;;;158.65;68.65;;;;;;;;;;5014224;28;20161;-61
2022/04/12 04:03:11;;;;;;;149.98;65.47;;;;;;;;;;5014061;28;20648;-61
2022/04/12 04:05:37;;;;;;;152.63;65.30;;;;;;;;;;5013993;28;20211;-61
2022/04/12 04:08:03;;;;;;;154.30;67.20;;;;;;;;;;5013923;28;20467;-61
2022/04/12 04:10:29;;;;;;;158.82;70.80;;;;;;;;;;5013480;28;20415;-61
2022/04/12 04:12:55;;;;;;;151.87;67.30;;;;;;;;;;5013836;28;20172;-62
2022/04/12 04:15:21;;;;;;;152.30;67.10;;;;;;;;;;5013637;28;20942;-62
2022/04/12 04:17:47;;;;;;;156.97;68.97;;;;;;;;;;5013711;28;20413;-61
2022/04/12 04:20:17;;;;;;;159.77;69.47;;;;;;;;;;5012713;28;20415;-61
2022/04/12 04:22:44;;;;;;;158.82;67.78;;;;;;;;;;5013629;28;20176;-61
2022/04/12 04:25:10;;;;;;;154.25;70.63;;;;;;;;;;5013167;28;20181;-61
2022/04/12 04:27:36;;;;;;;147.70;66.45;;;;;;;;;;5013147;28;20735;-61
2022/04/12 04:30:04;;;;;;;153.18;65.55;;;;;;;;;;5013489;28;20186;-62
2022/04/12 04:32:30;;;;;;;155.00;67.28;;;;;;;;;;5013405;28;20176;-61
2022/04/12 04:34:56;;;;;;;155.57;66.88;;;;;;;;;;5013385;28;20177;-61
2022/04/12 04:37:22;;;;;;;158.97;68.17;;;;;;;;;;5013408;28;20208;-61
2022/04/12 04:39:48;;;;;;;161.88;68.55;;;;;;;;;;5013479;28;20419;-61
2022/04/12 04:42:14;;;;;;;160.33;67.63;;;;;;;;;;5013100;28;20192;-61
2022/04/12 04:44:40;;;;;;;160.17;69.00;;;;;;;;;;5012340;28;20419;-61
2022/04/12 04:47:06;;;;;;;140.47;64.97;;;;;;;;;;5001871;28;20514;-60
2022/04/12 04:49:32;;;;;;;163.18;67.80;;;;;;;;;;4993364;28;20427;-61
2022/04/12 04:51:58;;;;;;;166.50;70.13;;;;;;;;;;4992823;28;20177;-63
2022/04/12 04:54:24;;;;;;;164.97;66.67;;;;;;;;;;5009957;28;20430;-58
2022/04/12 04:56:51;;;;;;;166.60;67.50;;;;;;;;;;5012604;28;20469;-60
2022/04/12 04:59:17;;;;;;;165.38;68.38;;;;;;;;;;5005277;28;20424;-61
2022/04/12 05:01:43;;;;;;;163.27;68.03;;;;;;;;;;5004587;28;20246;-62
2022/04/12 05:04:09;;;;;;;153.13;66.00;;;;;;;;;;5012980;28;20450;-61
2022/04/12 05:06:35;;;;;;;158.60;66.30;;;;;;;;;;5012682;28;20857;-60
2022/04/12 05:09:01;;;;;;;157.40;66.10;;;;;;;;;;5012758;28;20411;-61
2022/04/12 05:11:27;;;;;;;158.27;65.27;;;;;;;;;;5005473;28;20448;-61
2022/04/12 05:13:55;;;;;;;150.75;65.50;;;;;;;;;;4993110;28;20401;-61
2022/04/12 05:16:21;;;;;;;146.05;63.40;;;;;;;;;;4992886;28;20205;-61
2022/04/12 05:18:47;;;;;;;150.30;66.87;;;;;;;;;;4993078;28;20182;-62
2022/04/12 05:21:13;;;;;;;147.03;64.27;;;;;;;;;;4992378;28;20417;-62
2022/04/12 05:23:39;;;;;;;152.73;66.95;;;;;;;;;;4992729;28;20416;-63
2022/04/12 05:26:05;;;;;;;152.57;65.57;;;;;;;;;;4992781;28;20303;-62
2022/04/12 05:28:31;;;;;;;165.17;67.97;;;;;;;;;;4992863;28;20901;-62
2022/04/12 05:30:57;;;;;;;163.98;68.78;;;;;;;;;;4992604;28;20798;-62
2022/04/12 05:33:23;;;;;;;167.80;68.47;;;;;;;;;;4992889;28;20169;-62
2022/04/12 05:35:49;;;;;;;178.90;72.73;;;;;;;;;;4992580;28;20499;-62
2022/04/12 05:38:14;;;;;;;175.90;71.35;;;;;;;;;;4992721;28;20402;-62
2022/04/12 05:40:40;;;;;;;176.57;69.37;;;;;;;;;;4992509;28;20177;-62
2022/04/12 05:43:07;;;;;;;180.10;69.53;;;;;;;;;;4992265;28;20449;-62
2022/04/12 05:45:33;;;;;;;174.10;70.38;;;;;;;;;;4992417;28;20432;-62
2022/04/12 05:48:00;;;;;;;157.50;67.72;;;;;;;;;;5007582;28;20216;-62
2022/04/12 05:50:26;;;;;;;176.55;72.97;;;;;;;;;;5011590;28;20174;-62
2022/04/12 05:52:53;;;;;;;172.93;69.05;;;;;;;;;;5012183;28;20256;-62
2022/04/12 05:55:20;;;;;;;182.65;71.90;;;;;;;;;;5012070;28;20263;-62
2022/04/12 05:57:56;;;;;;;166.32;68.82;;;;;;;;;;5012142;28;20182;-62
2022/04/12 06:00:22;;;;;;;171.23;73.00;;;;;;;;;;5011942;28;20264;-62
2022/04/12 06:02:49;;;;;;;180.23;70.47;;;;;;;;;;5012024;28;20552;-61
2022/04/12 06:05:15;;;;;;;176.05;77.20;;;;;;;;;;5011919;28;20181;-61
2022/04/12 06:07:42;;;;;;;189.73;74.95;;;;;;;;;;5011965;28;20219;-62
2022/04/12 06:10:09;;;;;;;190.10;78.50;;;;;;;;;;5011685;28;20176;-61
2022/04/12 06:12:35;;;;;;;186.45;73.40;;;;;;;;;;5011958;28;20260;-62
2022/04/12 06:15:01;;;;;;;192.07;76.40;;;;;;;;;;5011945;28;20259;-61
2022/04/12 06:17:34;;;;;;;189.40;78.97;;;;;;;;;;5009322;28;20436;-62
2022/04/12 06:20:03;;;;;;;181.18;76.53;;;;;;;;;;5011329;28;20495;-62
2022/04/12 06:22:29;;;;;;;192.50;78.07;;;;;;;;;;5012308;28;20180;-62
2022/04/12 06:24:56;;;;;;;196.00;80.40;;;;;;;;;;5011786;28;20179;-62
2022/04/12 06:27:41;;;;;;;191.00;80.63;;;;;;;;;;5010359;28;20692;-62
2022/04/12 06:30:08;;;;;;;190.07;80.15;;;;;;;;;;5011305;28;20227;-62
2022/04/12 06:32:35;;;;;;;191.93;80.10;;;;;;;;;;5011488;28;20220;-63
2022/04/12 06:35:01;;;;;;;186.35;81.07;;;;;;;;;;5010719;28;20181;-62
2022/04/12 06:37:27;;;;;;;187.95;87.32;;;;;;;;;;5009641;28;20208;-62
2022/04/12 06:39:54;;;;;;;149.65;79.38;;;;;;;;;;5010113;28;20204;-62
2022/04/12 06:42:20;;;;;;;161.73;83.90;;;;;;;;;;5011217;28;20730;-62
2022/04/12 06:44:46;;;;;;;157.38;82.07;;;;;;;;;;5010991;28;20180;-64
2022/04/12 06:47:14;;;;;;;140.10;82.13;;;;;;;;;;5011204;28;20205;-62
2022/04/12 06:49:40;;;;;;;146.30;87.90;;;;;;;;;;5011339;28;20257;-62
2022/04/12 06:52:06;;;;;;;145.67;85.77;;;;;;;;;;5002061;28;20178;-63
2022/04/12 06:54:32;;;;;;;177.80;90.53;;;;;;;;;;4994625;28;20420;-63
2022/04/12 06:56:57;;;;;;;180.47;93.90;;;;;;;;;;5004546;28;20799;-62
2022/04/12 06:59:25;;;;;;;186.00;94.80;;;;;;;;;;5010133;28;20401;-62
2022/04/12 07:01:51;;;;;;;198.30;102.20;;;;;;;;;;5009131;28;20447;-62
2022/04/12 07:04:17;;;;;;;195.47;98.37;;;;;;;;;;5010182;28;20198;-63
2022/04/12 07:06:43;;;;;;;198.40;99.80;;;;;;;;;;5014138;28;20463;-63
2022/04/12 07:09:15;;;;;;;199.37;102.10;;;;;;;;;;5014300;28;20549;-63
2022/04/12 07:11:41;;;;;;;206.27;105.65;;;;;;;;;;5014645;28;21121;-62
2022/04/12 07:14:07;;;;;;;197.80;102.60;;;;;;;;;;5014050;28;20182;-62
2022/04/12 07:16:33;;;;;;;206.40;105.73;;;;;;;;;;4994784;28;20453;-62
2022/04/12 07:18:59;;;;;;;203.43;104.47;;;;;;;;;;4995001;28;20497;-62
2022/04/12 07:21:27;;;;;;;212.48;111.57;;;;;;;;;;4994828;28;20884;-61
2022/04/12 07:23:53;;;;;;;212.32;107.82;;;;;;;;;;4995291;28;20665;-62
2022/04/12 07:26:19;;;;;;;214.57;111.73;;;;;;;;;;4994515;28;20198;-62
2022/04/12 07:28:45;;;;;;;211.80;113.60;;;;;;;;;;4994847;28;20476;-62
2022/04/12 07:31:11;;;;;;;220.83;113.33;;;;;;;;;;4994716;28;20489;-62
2022/04/12 07:33:37;;;;;;;217.63;119.23;;;;;;;;;;4995137;28;20769;-62
2022/04/12 07:36:03;;;;;;;217.77;122.60;;;;;;;;;;4994849;28;20763;-62
2022/04/12 07:38:29;;;;;;;219.95;121.40;;;;;;;;;;4995554;28;20920;-63
2022/04/12 07:40:55;;;;;;;230.27;129.77;;;;;;;;;;5000999;28;20174;-62
2022/04/12 07:43:21;;;;;;;215.27;136.03;;;;;;;;;;5004144;28;20475;-62
2022/04/12 07:45:46;;;;;;;214.50;134.73;;;;;;;;;;5003059;28;20434;-62
2022/04/12 07:48:12;;;;;;;218.87;138.03;;;;;;;;;;5002652;28;20567;-62
2022/04/12 07:50:39;;;;;;;224.83;142.83;;;;;;;;;;5002056;28;20401;-62
2022/04/12 07:53:05;;;;;;;229.77;139.18;;;;;;;;;;5002623;28;20421;-62
2022/04/12 07:55:31;;;;;;;235.45;143.80;;;;;;;;;;5002602;28;20201;-62
2022/04/12 07:57:57;;;;;;;236.77;155.83;;;;;;;;;;5002778;28;20186;-62
2022/04/12 08:00:23;;;;;;;235.55;175.20;;;;;;;;;;5008026;28;20419;-62
2022/04/12 08:02:49;;;;;;;249.57;186.05;;;;;;;;;;5013511;28;20191;-63
2022/04/12 08:05:15;;;;;;;259.83;204.27;;;;;;;;;;5013671;28;20208;-62
2022/04/12 08:07:47;;;;;;;257.33;220.77;;;;;;;;;;5013606;28;20707;-62
2022/04/12 08:10:14;;;;;;;279.03;249.07;;;;;;;;;;5013531;28;20446;-63
2022/04/12 08:12:40;;;;;;;287.02;256.88;;;;;;;;;;5013894;28;20500;-63
2022/04/12 08:15:06;;;;;;;304.33;273.17;;;;;;;;;;5013864;28;20649;-62
2022/04/12 08:17:32;;;;;;;322.63;289.83;;;;;;;;;;5013987;28;20435;-62
2022/04/12 08:19:58;;;;;;;355.40;321.40;;;;;;;;;;5012016;28;20649;-62
2022/04/12 08:22:24;;;;;;;380.57;345.27;;;;;;;;;;5010549;28;20493;-63
2022/04/12 08:24:49;;;;;;;413.73;377.53;;;;;;;;;;4995976;28;20425;-63
2022/04/12 08:27:15;;;;;;;432.03;395.23;;;;;;;;;;4993868;28;20465;-62
2022/04/12 08:29:41;;;;;;;487.50;448.80;;;;;;;;;;5001668;28;20416;-62
2022/04/12 08:32:08;;;;;;;523.90;483.90;;;;;;;;;;5002524;28;20418;-62
2022/04/12 08:34:33;;;;;;;522.87;483.70;;;;;;;;;;5003901;28;20408;-62
2022/04/12 08:36:59;;;;;;;538.97;498.47;;;;;;;;;;5001943;28;20437;-62
2022/04/12 08:39:25;;;;;;;562.00;521.78;;;;;;;;;;5001955;28;20808;-62
2022/04/12 08:41:52;;;;;;;559.07;518.90;;;;;;;;;;5003233;28;20185;-62
2022/04/12 08:44:18;;;;;;;602.23;559.67;;;;;;;;;;5001803;28;20414;-63
2022/04/12 08:46:48;;;;;;;648.87;603.07;;;;;;;;;;5002035;28;20460;-63
2022/04/12 08:49:14;;;;;;;685.30;638.90;;;;;;;;;;5004865;28;20844;-60
2022/04/12 08:51:40;;;;;;;706.50;659.30;;;;;;;;;;4995842;28;20969;-60
2022/04/12 08:54:06;;;;;;;735.30;690.50;;;;;;;;;;5003298;28;20429;-61
2022/04/12 08:56:32;;;;;;;761.10;714.80;;;;;;;;;;5002535;28;20445;-61
2022/04/12 08:58:59;;;;;;;802.10;752.87;;;;;;;;;;5000458;28;20420;-61
2022/04/12 09:01:25;;;;;;;823.07;770.77;;;;;;;;;;5001433;28;21066;-61
2022/04/12 09:03:51;;;;;;;853.47;800.87;;;;;;;;;;5001781;28;20419;-61
2022/04/12 09:06:17;;;;;;;858.33;807.57;;;;;;;;;;5006206;28;20436;-61
2022/04/12 09:08:44;;;;;;;881.60;829.87;;;;;;;;;;5002590;28;20797;-61
2022/04/12 09:11:11;;;;;;;878.07;826.80;;;;;;;;;;5003476;28;20417;-62
2022/04/12 09:13:37;;;;;;;865.90;816.30;;;;;;;;;;4999932;28;20420;-61
2022/04/12 09:16:07;;;;;;;821.03;773.60;;;;;;;;;;5001287;28;20428;-63
2022/04/12 09:18:40;;;;;;;792.23;742.60;;;;;;;;;;5004937;28;20425;-62
2022/04/12 09:21:11;;;;;;;773.87;725.40;;;;;;;;;;5004212;28;20441;-62
2022/04/12 09:23:37;;;;;;;747.77;699.17;;;;;;;;;;5001505;28;20785;-63
2022/04/12 09:26:03;;;;;;;778.93;728.93;;;;;;;;;;4998652;28;20442;-63
2022/04/12 09:28:39;;;;;;;816.60;763.90;;;;;;;;;;4998246;28;20429;-62
2022/04/12 09:31:12;;;;;;;839.80;785.97;;;;;;;;;;4998194;28;20411;-61
2022/04/12 09:33:38;;;;;;;895.67;838.27;;;;;;;;;;5002798;28;20415;-61
2022/04/12 09:36:05;;;;;;;916.43;858.03;;;;;;;;;;4998413;28;20801;-61
2022/04/12 09:38:35;;;;;;;920.20;862.30;;;;;;;;;;5000634;28;20442;-61
2022/04/12 09:41:14;;;;;;;931.13;872.73;;;;;;;;;;5000697;28;20400;-61
2022/04/12 09:43:41;;;;;;;917.27;860.07;;;;;;;;;;5000603;28;20412;-61
2022/04/12 09:46:13;;;;;;;913.67;857.87;;;;;;;;;;5002165;28;20445;-61
2022/04/12 09:48:45;;;;;;;925.57;868.00;;;;;;;;;;5001794;28;20393;-61
2022/04/12 09:51:13;;;;;;;939.90;882.60;;;;;;;;;;4999107;28;20924;-62
2022/04/12 09:53:39;;;;;;;949.03;890.57;;;;;;;;;;4995664;28;20417;-62
2022/04/12 09:56:15;;;;;;;955.03;895.40;;;;;;;;;;5008513;28;20486;-62
2022/04/12 09:58:44;;;;;;;957.43;897.13;;;;;;;;;;5007271;28;20911;-62
2022/04/12 10:01:10;;;;;;;960.93;900.93;;;;;;;;;;4990675;28;20471;-62
2022/04/12 10:03:37;;;;;;;947.07;888.70;;;;;;;;;;4999550;28;20807;-62
2022/04/12 10:06:04;;;;;;;928.97;870.90;;;;;;;;;;5006936;28;20937;-62
2022/04/12 10:08:31;;;;;;;923.50;865.83;;;;;;;;;;5005888;28;20465;-62
2022/04/12 10:10:58;;;;;;;919.77;862.10;;;;;;;;;;5004730;28;20913;-62
2022/04/12 10:13:25;;;;;;;912.13;855.27;;;;;;;;;;5007179;28;20418;-60
2022/04/12 10:15:52;;;;;;;916.50;858.10;;;;;;;;;;5001412;28;20458;-62
2022/04/12 10:18:20;;;;;;;914.80;857.00;;;;;;;;;;5000940;28;20422;-62
2022/04/12 10:20:46;;;;;;;879.63;824.50;;;;;;;;;;4999423;28;20797;-62
2022/04/12 10:23:13;;;;;;;817.37;764.83;;;;;;;;;;5001014;28;20776;-61
2022/04/12 10:25:40;;;;;;;794.43;742.47;;;;;;;;;;5000807;28;21211;-61
2022/04/12 10:28:06;;;;;;;779.10;726.47;;;;;;;;;;5002601;28;20974;-61
2022/04/12 10:30:33;;;;;;;782.03;729.87;;;;;;;;;;4998785;28;21022;-62
2022/04/12 10:33:06;;;;;;;773.93;721.93;;;;;;;;;;5002241;28;20512;-62
2022/04/12 10:35:47;;;;;;;790.73;737.97;;;;;;;;;;4997036;28;20425;-62
2022/04/12 10:38:17;;;;;;;816.70;763.13;;;;;;;;;;5006113;28;20906;-62
2022/04/12 10:40:44;;;;;;;814.63;761.53;;;;;;;;;;5006722;28;20475;-62
2022/04/12 10:43:14;;;;;;;805.83;753.23;;;;;;;;;;4999650;28;20424;-62
2022/04/12 10:45:46;;;;;;;775.27;723.37;;;;;;;;;;5004858;28;20432;-62
2022/04/12 10:48:20;;;;;;;781.07;730.47;;;;;;;;;;5002492;28;20474;-61
2022/04/12 10:50:46;;;;;;;811.20;757.20;;;;;;;;;;5000462;28;20455;-62
2022/04/12 10:53:13;;;;;;;801.67;755.70;;;;;;;;;;4997528;28;20418;-61
2022/04/12 10:55:43;;;;;;;773.53;722.47;;;;;;;;;;5011282;28;20440;-62
2022/04/12 10:58:28;;;;;;;752.10;706.40;;;;;;;;;;5007160;28;20515;-62
2022/04/12 11:00:55;;;;;;;754.30;706.00;;;;;;;;;;5007082;28;20448;-62
2022/04/12 11:03:26;;;;;;;807.63;755.40;;;;;;;;;;5009672;28;20436;-62
2022/04/12 11:05:53;;;;;;;824.43;771.77;;;;;;;;;;5004918;28;20897;-62
2022/04/12 11:08:20;;;;;;;822.93;770.33;;;;;;;;;;5003872;28;20991;-62
2022/04/12 11:10:52;;;;;;;860.60;810.30;;;;;;;;;;5001001;28;20414;-62
2022/04/12 11:13:20;;;;;;;864.40;817.50;;;;;;;;;;5002039;28;20425;-63
2022/04/12 11:15:54;;;;;;;873.67;818.67;;;;;;;;;;5002946;28;20499;-62
2022/04/12 11:18:20;;;;;;;894.33;838.53;;;;;;;;;;5000948;28;20420;-62
2022/04/12 11:20:59;;;;;;;884.70;829.83;;;;;;;;;;4993837;28;20845;-63
2022/04/12 11:23:48;;;;;;;867.17;812.87;;;;;;;;;;4995307;28;20417;-63
2022/04/12 11:26:33;;;;;;;865.97;811.80;;;;;;;;;;5006793;28;20437;-62
2022/04/12 11:28:59;;;;;;;821.33;769.93;;;;;;;;;;5010757;28;20436;-62
2022/04/12 11:31:25;;;;;;;771.90;722.30;;;;;;;;;;5003501;28;20421;-62
2022/04/12 11:33:51;;;;;;;774.23;723.50;;;;;;;;;;5005659;28;20413;-62
2022/04/12 11:36:18;;;;;;;748.20;699.90;;;;;;;;;;5004183;28;20436;-62
2022/04/12 11:38:44;;;;;;;750.10;702.00;;;;;;;;;;4984841;28;20413;-62
2022/04/12 11:41:10;;;;;;;747.57;697.57;;;;;;;;;;5002191;28;20405;-62
2022/04/12 11:43:36;;;;;;;745.67;695.10;;;;;;;;;;5004454;28;20407;-62
2022/04/12 11:46:02;;;;;;;728.93;679.07;;;;;;;;;;5006024;28;20939;-63
2022/04/12 11:48:29;;;;;;;743.30;692.80;;;;;;;;;;5003736;28;20462;-62
2022/04/12 11:50:55;;;;;;;710.60;661.13;;;;;;;;;;5009874;28;20922;-62
2022/04/12 11:53:22;;;;;;;697.53;648.47;;;;;;;;;;5007197;28;20972;-62
2022/04/12 11:55:48;;;;;;;700.67;652.13;;;;;;;;;;4998807;28;20440;-62
2022/04/12 11:58:14;;;;;;;671.77;623.87;;;;;;;;;;4993936;28;20481;-62
2022/04/12 12:00:41;;;;;;;659.57;613.67;;;;;;;;;;5000548;28;20409;-62
2022/04/12 12:03:13;;;;;;;671.73;625.20;;;;;;;;;;4998994;28;20976;-63
2022/04/12 12:05:39;;;;;;;641.43;596.53;;;;;;;;;;4995873;28;20444;-62
2022/04/12 12:08:05;;;;;;;665.07;619.53;;;;;;;;;;5002984;28;20472;-63
2022/04/12 12:10:31;;;;;;;679.33;633.73;;;;;;;;;;5004215;28;20410;-62
2022/04/12 12:12:58;;;;;;;659.63;614.07;;;;;;;;;;5002030;28;20979;-61
2022/04/12 12:15:25;;;;;;;664.57;616.30;;;;;;;;;;5002169;28;20501;-62
2022/04/12 12:17:52;;;;;;;647.40;599.87;;;;;;;;;;5000389;28;20936;-62
2022/04/12 12:20:19;;;;;;;626.77;579.90;;;;;;;;;;5000581;28;20420;-61
2022/04/12 12:22:46;;;;;;;580.40;534.60;;;;;;;;;;5001917;28;20478;-62
2022/04/12 12:25:18;;;;;;;618.70;568.10;;;;;;;;;;5003242;28;20818;-62
2022/04/12 12:27:48;;;;;;;568.87;522.60;;;;;;;;;;5011897;28;20518;-62
2022/04/12 12:30:15;;;;;;;597.67;550.07;;;;;;;;;;5009280;28;20846;-62
2022/04/12 12:32:43;;;;;;;610.23;562.93;;;;;;;;;;5005537;28;20448;-62
2022/04/12 12:35:13;;;;;;;595.03;548.77;;;;;;;;;;5004254;28;20420;-61
2022/04/12 12:37:39;;;;;;;609.30;561.10;;;;;;;;;;4994955;28;20452;-61
2022/04/12 12:40:19;;;;;;;601.97;556.47;;;;;;;;;;5001420;28;20424;-61
2022/04/12 12:42:45;;;;;;;560.93;517.63;;;;;;;;;;5000831;28;20462;-62
2022/04/12 12:45:13;;;;;;;592.43;547.23;;;;;;;;;;5003984;28;20792;-62
2022/04/12 12:47:43;;;;;;;582.70;536.93;;;;;;;;;;5005793;28;20466;-62
2022/04/12 12:50:11;;;;;;;575.33;529.60;;;;;;;;;;5006930;28;20498;-62
2022/04/12 12:52:37;;;;;;;599.70;548.83;;;;;;;;;;5004064;28;20426;-62
2022/04/12 12:55:06;;;;;;;578.70;527.70;;;;;;;;;;5005633;28;20456;-61
2022/04/12 12:57:36;;;;;;;592.87;541.30;;;;;;;;;;5003289;28;20437;-61
2022/04/12 13:00:04;;;;;;;579.23;528.90;;;;;;;;;;5002596;28;20491;-62
2022/04/12 13:02:33;;;;;;;590.10;538.10;;;;;;;;;;5008116;28;20420;-62
2022/04/12 13:05:02;;;;;;;569.33;517.70;;;;;;;;;;5010210;28;20560;-62
2022/04/12 13:07:32;;;;;;;614.27;561.17;;;;;;;;;;5012471;28;20460;-62
2022/04/12 13:10:05;;;;;;;623.67;573.17;;;;;;;;;;5011717;28;20507;-62
2022/04/12 13:12:31;;;;;;;634.50;582.73;;;;;;;;;;5012464;28;20406;-62
2022/04/12 13:14:57;;;;;;;627.00;576.40;;;;;;;;;;5010978;28;20820;-63
2022/04/12 13:17:23;;;;;;;621.37;571.20;;;;;;;;;;5005637;28;20499;-62
2022/04/12 13:19:49;;;;;;;634.77;585.73;;;;;;;;;;5002405;28;20415;-64
2022/04/12 13:22:14;;;;;;;609.10;562.97;;;;;;;;;;5000183;28;20410;-63
2022/04/12 13:24:40;;;;;;;620.33;574.83;;;;;;;;;;4992935;28;20413;-63
2022/04/12 13:27:06;;;;;;;631.93;593.23;;;;;;;;;;4997874;28;20998;-62
2022/04/12 13:29:32;;;;;;;627.37;580.50;;;;;;;;;;5007230;28;20428;-62
2022/04/12 13:31:59;;;;;;;604.20;564.67;;;;;;;;;;5011218;28;20424;-64
2022/04/12 13:34:25;;;;;;;630.00;588.00;;;;;;;;;;5012840;28;20420;-62
2022/04/12 13:36:51;;;;;;;642.53;603.90;;;;;;;;;;5011538;28;20881;-63
2022/04/12 13:39:17;;;;;;;642.27;596.07;;;;;;;;;;5013548;28;20909;-62
2022/04/12 13:41:44;;;;;;;648.50;604.53;;;;;;;;;;5012310;28;20432;-63
2022/04/12 13:44:11;;;;;;;632.47;585.90;;;;;;;;;;5012429;28;20437;-62
2022/04/12 13:46:37;;;;;;;652.60;607.43;;;;;;;;;;5012119;28;20461;-62
2022/04/12 13:49:03;;;;;;;640.87;595.70;;;;;;;;;;5012553;28;20417;-62
2022/04/12 13:51:29;;;;;;;629.93;592.40;;;;;;;;;;5012404;28;20408;-62
2022/04/12 13:53:55;;;;;;;612.90;575.33;;;;;;;;;;5012086;28;20492;-62
2022/04/12 13:56:22;;;;;;;601.90;555.00;;;;;;;;;;5012222;28;20947;-62
2022/04/12 13:58:48;;;;;;;609.00;561.73;;;;;;;;;;5012216;28;20492;-62
2022/04/12 14:01:14;;;;;;;618.07;571.37;;;;;;;;;;5012002;28;20500;-62